createdAt,value
2018-01-31T01:54:03.312Z,6.20
2018-01-31T01:56:30.751Z,6.20
2018-01-31T01:58:58.961Z,6.20
2018-01-31T02:01:26.406Z,6.20
2018-01-31T02:03:53.839Z,6.20
2018-01-31T02:06:22.051Z,6.20
2018-01-31T02:08:49.483Z,6.10
2018-01-31T02:11:16.934Z,6.10
2018-01-31T02:13:44.379Z,6.10
2018-01-31T02:16:12.699Z,6.10
2018-01-31T02:18:40.116Z,6.10
2018-01-31T02:21:08.339Z,6.10
2018-01-31T02:23:35.780Z,6.10
2018-01-31T02:26:03.224Z,6.10
2018-01-31T02:28:31.430Z,6.00
2018-01-31T02:30:58.872Z,6.00
2018-01-31T02:33:26.326Z,6.00
2018-01-31T02:35:53.774Z,6.00
2018-01-31T02:38:33.752Z,6.00
2018-01-31T02:41:01.211Z,6.00
2018-01-31T02:43:28.664Z,6.00
2018-01-31T02:45:56.100Z,6.00
2018-01-31T02:48:23.557Z,5.90
2018-01-31T02:50:51.771Z,5.90
2018-01-31T02:53:19.227Z,5.90
2018-01-31T02:55:46.665Z,5.90
2018-01-31T02:58:14.108Z,5.80
2018-01-31T03:00:41.614Z,5.80
2018-01-31T03:03:09.763Z,5.80
2018-01-31T03:05:37.211Z,5.80
2018-01-31T03:08:04.652Z,5.70
2018-01-31T03:10:32.864Z,5.80
2018-01-31T03:13:00.295Z,5.80
2018-01-31T03:15:27.736Z,5.80
2018-01-31T03:17:55.942Z,5.70
2018-01-31T03:20:23.379Z,5.70
2018-01-31T03:22:51.577Z,5.60
2018-01-31T03:25:19.069Z,5.60
2018-01-31T03:27:46.513Z,5.60
2018-01-31T03:30:14.725Z,5.60
2018-01-31T03:32:42.155Z,5.60
2018-01-31T03:35:09.603Z,5.60
2018-01-31T03:37:37.043Z,5.50
2018-01-31T03:40:04.523Z,5.60
2018-01-31T03:42:32.723Z,5.50
2018-01-31T03:45:00.194Z,5.50
2018-01-31T03:47:27.630Z,5.70
2018-01-31T03:49:56.587Z,5.70
2018-01-31T03:52:24.042Z,5.70
2018-01-31T03:54:51.492Z,5.80
2018-01-31T03:57:18.936Z,5.80
2018-01-31T03:59:47.131Z,5.80
2018-01-31T04:02:14.581Z,5.80
2018-01-31T04:04:42.016Z,5.80
2018-01-31T04:07:10.227Z,5.80
2018-01-31T04:09:37.668Z,5.80
2018-01-31T04:12:05.881Z,5.80
2018-01-31T04:14:33.319Z,5.80
2018-01-31T04:17:00.767Z,5.80
2018-01-31T04:19:28.208Z,5.80
2018-01-31T04:21:56.423Z,5.80
2018-01-31T04:24:23.864Z,5.80
2018-01-31T04:26:51.303Z,5.80
2018-01-31T04:29:18.748Z,5.80
2018-01-31T04:31:46.967Z,5.90
2018-01-31T04:34:14.404Z,5.90
2018-01-31T04:36:41.847Z,5.90
2018-01-31T04:39:10.052Z,5.90
2018-01-31T04:41:37.509Z,5.90
2018-01-31T04:44:04.947Z,5.90
2018-01-31T04:46:32.404Z,5.90
2018-01-31T04:48:59.848Z,5.90
2018-01-31T04:51:28.052Z,5.80
2018-01-31T04:53:55.500Z,5.80
2018-01-31T04:56:22.935Z,5.80
2018-01-31T04:58:51.149Z,5.70
2018-01-31T05:01:19.127Z,5.70
2018-01-31T05:03:46.583Z,5.70
2018-01-31T05:06:14.032Z,5.60
2018-01-31T05:08:41.475Z,5.50
2018-01-31T05:11:08.912Z,5.40
2018-01-31T05:13:37.135Z,5.40
2018-01-31T05:16:04.628Z,5.40
2018-01-31T05:18:32.072Z,5.40
2018-01-31T05:20:59.531Z,5.40
2018-01-31T05:23:26.970Z,5.40
2018-01-31T05:25:54.399Z,5.40
2018-01-31T05:28:21.865Z,5.40
2018-01-31T05:30:49.308Z,5.40
2018-01-31T05:33:17.543Z,5.40
2018-01-31T05:35:45.000Z,5.30
2018-01-31T05:38:12.444Z,5.30
2018-01-31T05:40:39.888Z,5.30
2018-01-31T05:43:07.335Z,5.40
2018-01-31T05:45:34.773Z,5.40
2018-01-31T05:48:02.983Z,5.40
2018-01-31T05:50:30.436Z,5.40
2018-01-31T05:52:57.883Z,5.50
2018-01-31T05:55:25.340Z,5.50
2018-01-31T05:57:52.788Z,5.50
2018-01-31T06:00:28.244Z,5.50
2018-01-31T06:02:55.691Z,5.50
2018-01-31T06:05:23.138Z,5.50
2018-01-31T06:07:51.356Z,5.50
2018-01-31T06:10:18.793Z,5.50
2018-01-31T06:12:46.231Z,5.50
2018-01-31T06:15:14.436Z,5.50
2018-01-31T06:17:41.908Z,5.50
2018-01-31T06:20:09.349Z,5.50
2018-01-31T06:22:36.787Z,5.50
2018-01-31T06:25:04.240Z,5.50
2018-01-31T06:27:32.445Z,5.50
2018-01-31T06:29:59.892Z,5.50
2018-01-31T06:32:27.331Z,5.50
2018-01-31T06:34:55.544Z,5.50
2018-01-31T06:37:22.984Z,5.50
2018-01-31T06:39:50.448Z,5.50
2018-01-31T06:42:17.884Z,5.50
2018-01-31T06:44:45.329Z,5.50
2018-01-31T06:47:13.532Z,5.50
2018-01-31T06:49:40.988Z,5.50
2018-01-31T06:52:08.456Z,5.50
2018-01-31T06:54:35.895Z,5.50
2018-01-31T06:57:03.336Z,5.50
2018-01-31T06:59:31.556Z,5.40
2018-01-31T07:01:59.002Z,5.50
2018-01-31T07:04:26.448Z,5.40
2018-01-31T07:06:53.926Z,5.40
2018-01-31T07:09:21.382Z,5.40
2018-01-31T07:11:48.839Z,5.40
2018-01-31T07:14:16.296Z,5.40
2018-01-31T07:16:43.792Z,5.30
2018-01-31T07:19:11.230Z,5.30
2018-01-31T07:21:38.776Z,5.30
2018-01-31T07:24:06.197Z,5.20
2018-01-31T07:26:34.467Z,5.00
2018-01-31T07:29:02.676Z,4.90
2018-01-31T07:31:30.141Z,4.90
2018-01-31T07:33:57.593Z,4.80
2018-01-31T07:36:25.045Z,4.70
2018-01-31T07:38:52.483Z,4.60
2018-01-31T07:41:20.703Z,4.50
2018-01-31T07:43:48.151Z,4.50
2018-01-31T07:46:15.600Z,4.50
2018-01-31T07:48:43.041Z,4.40
2018-01-31T07:51:11.252Z,4.50
2018-01-31T07:53:38.704Z,4.50
2018-01-31T07:56:06.164Z,4.60
2018-01-31T07:58:33.623Z,4.70
2018-01-31T08:01:01.063Z,4.70
2018-01-31T08:03:28.520Z,4.80
2018-01-31T08:05:55.959Z,4.90
2018-01-31T08:08:24.272Z,5.10
2018-01-31T08:10:51.695Z,5.10
2018-01-31T08:13:19.917Z,5.30
2018-01-31T08:15:47.361Z,5.30
2018-01-31T08:18:14.828Z,5.30
2018-01-31T08:20:42.263Z,5.40
2018-01-31T08:23:09.728Z,5.50
2018-01-31T08:25:37.190Z,5.50
2018-01-31T08:28:04.628Z,5.60
2018-01-31T08:30:32.840Z,5.80
2018-01-31T08:33:00.337Z,5.70
2018-01-31T08:35:27.727Z,5.80
2018-01-31T08:37:55.203Z,5.90
2018-01-31T08:40:22.639Z,6.00
2018-01-31T08:42:50.087Z,6.10
2018-01-31T08:45:18.292Z,6.30
2018-01-31T08:47:45.749Z,6.30
2018-01-31T08:50:13.198Z,6.40
2018-01-31T08:52:40.631Z,6.40
2018-01-31T08:55:08.844Z,6.70
2018-01-31T08:57:36.280Z,6.60
2018-01-31T09:00:03.732Z,6.80
2018-01-31T09:02:31.992Z,7.00
2018-01-31T09:05:00.213Z,7.10
2018-01-31T09:07:27.648Z,7.10
2018-01-31T09:09:55.100Z,7.30
2018-01-31T09:12:23.321Z,7.80
2018-01-31T09:14:50.779Z,7.70
2018-01-31T09:17:18.251Z,8.00
2018-01-31T09:19:45.716Z,8.10
2018-01-31T09:22:13.161Z,8.40
2018-01-31T09:24:40.609Z,8.50
2018-01-31T09:27:08.051Z,8.60
2018-01-31T09:29:35.516Z,8.80
2018-01-31T09:32:02.980Z,8.70
2018-01-31T09:34:30.428Z,8.50
2018-01-31T09:36:57.867Z,8.30
2018-01-31T09:39:25.315Z,8.20
2018-01-31T09:41:53.524Z,8.30
2018-01-31T09:44:20.971Z,8.30
2018-01-31T09:46:48.455Z,8.50
2018-01-31T09:49:15.882Z,8.80
2018-01-31T09:51:43.331Z,9.00
2018-01-31T09:54:10.774Z,9.20
2018-01-31T09:56:38.992Z,9.10
2018-01-31T09:59:06.437Z,9.10
2018-01-31T10:01:33.901Z,9.10
2018-01-31T10:04:01.340Z,9.10
2018-01-31T10:06:28.796Z,9.00
2018-01-31T10:08:56.236Z,9.00
2018-01-31T10:11:24.451Z,9.10
2018-01-31T10:13:51.892Z,9.10
2018-01-31T10:16:19.341Z,9.20
2018-01-31T10:18:47.537Z,9.50
2018-01-31T10:21:14.994Z,9.50
2018-01-31T10:23:42.436Z,9.70
2018-01-31T10:26:09.903Z,10.10
2018-01-31T10:28:37.369Z,10.40
2018-01-31T10:31:04.838Z,10.60
2018-01-31T10:33:32.389Z,10.80
2018-01-31T10:35:59.819Z,11.00
2018-01-31T10:38:28.039Z,10.80
2018-01-31T10:40:55.484Z,10.80
2018-01-31T10:43:22.949Z,10.80
2018-01-31T10:45:50.405Z,10.90
2018-01-31T10:48:17.864Z,10.80
2018-01-31T10:50:45.317Z,10.60
2018-01-31T10:53:12.800Z,10.60
2018-01-31T10:58:07.707Z,10.60
2018-01-31T11:00:35.156Z,10.50
2018-01-31T11:03:02.647Z,10.60
2018-01-31T11:05:30.092Z,10.50
2018-01-31T11:07:57.548Z,10.20
2018-01-31T11:10:25.004Z,10.20
2018-01-31T11:12:52.460Z,10.00
2018-01-31T11:15:19.951Z,10.00
2018-01-31T11:17:47.403Z,10.00
2018-01-31T11:20:14.853Z,10.10
2018-01-31T11:22:42.310Z,10.30
2018-01-31T11:25:09.756Z,10.60
2018-01-31T11:27:37.217Z,10.70
2018-01-31T11:30:04.661Z,10.80
2018-01-31T11:32:32.108Z,10.80
2018-01-31T11:34:59.560Z,10.70
2018-01-31T11:37:27.012Z,10.50
2018-01-31T11:39:54.577Z,10.40
2018-01-31T11:42:22.008Z,10.30
2018-01-31T11:44:50.228Z,10.30
2018-01-31T11:47:17.684Z,10.30
2018-01-31T11:49:45.129Z,10.40
2018-01-31T11:52:12.597Z,10.50
2018-01-31T11:54:40.033Z,10.60
2018-01-31T11:57:07.484Z,10.50
2018-01-31T11:59:34.923Z,10.40
2018-01-31T12:02:03.148Z,10.20
2018-01-31T12:04:30.595Z,10.20
2018-01-31T12:06:58.042Z,10.10
2018-01-31T12:09:36.248Z,10.10
2018-01-31T12:12:03.691Z,10.10
2018-01-31T12:14:43.901Z,10.10
2018-01-31T12:17:11.380Z,10.10
2018-01-31T12:19:50.840Z,10.30
2018-01-31T12:22:29.721Z,10.70
2018-01-31T12:25:22.864Z,10.60
2018-01-31T12:28:02.147Z,10.80
2018-01-31T12:33:48.198Z,11.00
2018-01-31T12:36:27.748Z,11.00
2018-01-31T12:38:58.748Z,11.00
2018-01-31T12:41:25.700Z,10.90
2018-01-31T12:43:53.423Z,10.50
2018-01-31T12:46:32.647Z,10.50
2018-01-31T12:49:20.764Z,10.40
2018-01-31T12:51:58.014Z,10.50
2018-01-31T12:54:34.303Z,10.40
2018-01-31T12:57:14.562Z,10.40
2018-01-31T12:59:54.825Z,10.40
2018-01-31T13:02:24.452Z,10.40
2018-01-31T13:05:04.515Z,10.70
2018-01-31T13:07:44.031Z,10.70
2018-01-31T13:10:24.143Z,11.50
2018-01-31T13:13:14.363Z,11.50
2018-01-31T13:15:54.409Z,11.60
2018-01-31T13:18:33.756Z,11.60
2018-01-31T13:21:14.016Z,11.60
2018-01-31T13:23:54.013Z,11.50
2018-01-31T13:26:30.449Z,11.50
2018-01-31T13:29:09.809Z,11.50
2018-01-31T13:31:59.903Z,11.40
2018-01-31T13:34:39.182Z,11.40
2018-01-31T13:37:24.392Z,11.40
2018-01-31T13:40:02.924Z,11.40
2018-01-31T13:45:50.092Z,11.50
2018-01-31T13:48:29.496Z,11.50
2018-01-31T13:54:14.426Z,11.40
2018-01-31T13:56:53.812Z,11.40
2018-01-31T13:59:33.335Z,11.40
2018-01-31T14:02:22.157Z,11.40
2018-01-31T14:05:01.327Z,11.40
2018-01-31T14:07:41.544Z,11.40
2018-01-31T14:10:20.961Z,11.40
2018-01-31T14:13:00.343Z,11.40
2018-01-31T14:15:39.810Z,11.40
2018-01-31T14:18:19.873Z,11.60
2018-01-31T14:20:59.912Z,11.60
2018-01-31T14:23:39.964Z,11.60
2018-01-31T14:26:20.119Z,11.70
2018-01-31T14:29:00.244Z,11.70
2018-01-31T14:31:39.607Z,11.70
2018-01-31T14:34:18.956Z,11.70
2018-01-31T14:36:46.676Z,11.70
2018-01-31T14:39:13.635Z,11.70
2018-01-31T14:41:40.589Z,11.70
2018-01-31T14:44:07.544Z,11.70
2018-01-31T14:46:35.274Z,11.60
2018-01-31T14:49:02.240Z,11.60
2018-01-31T14:51:29.188Z,11.70
2018-01-31T14:53:56.152Z,11.60
2018-01-31T14:56:23.877Z,11.50
2018-01-31T14:58:50.833Z,11.50
2018-01-31T15:01:17.791Z,11.50
2018-01-31T15:03:44.793Z,11.50
2018-01-31T15:06:11.739Z,11.50
2018-01-31T15:08:38.679Z,11.50
2018-01-31T15:11:05.652Z,11.40
2018-01-31T15:13:32.599Z,11.40
2018-01-31T15:15:59.600Z,11.40
2018-01-31T15:18:27.315Z,11.30
2018-01-31T15:20:54.280Z,11.30
2018-01-31T15:23:21.246Z,11.20
2018-01-31T15:25:48.200Z,11.10
2018-01-31T15:28:15.916Z,10.80
2018-01-31T15:30:42.880Z,10.80
2018-01-31T15:33:09.829Z,10.70
2018-01-31T15:35:36.779Z,10.50
2018-01-31T15:38:03.723Z,10.40
2018-01-31T15:40:30.687Z,10.20
2018-01-31T15:42:58.405Z,9.90
2018-01-31T15:45:25.356Z,9.90
2018-01-31T15:47:52.299Z,9.80
2018-01-31T15:50:19.251Z,9.70
2018-01-31T15:52:46.195Z,9.50
2018-01-31T15:55:13.161Z,9.40
2018-01-31T15:57:40.104Z,9.20
2018-01-31T16:00:07.061Z,9.10
2018-01-31T16:02:34.005Z,8.90
2018-01-31T16:05:00.987Z,8.70
2018-01-31T16:07:28.731Z,8.70
2018-01-31T16:09:55.687Z,8.70
2018-01-31T16:12:23.395Z,8.60
2018-01-31T16:14:50.373Z,8.60
2018-01-31T16:17:17.851Z,8.60
2018-01-31T16:19:57.923Z,8.60
2018-01-31T16:22:25.357Z,8.60
2018-01-31T16:24:52.803Z,8.60
2018-01-31T16:27:23.064Z,8.60
2018-01-31T16:33:02.336Z,8.70
2018-01-31T16:35:29.795Z,8.70
2018-01-31T16:37:57.236Z,8.70
2018-01-31T16:40:24.694Z,8.80
2018-01-31T16:42:52.123Z,8.80
2018-01-31T16:45:19.568Z,8.80
2018-01-31T16:47:47.007Z,8.80
2018-01-31T16:50:14.463Z,8.80
2018-01-31T16:52:41.905Z,8.80
2018-01-31T16:55:09.335Z,8.90
2018-01-31T16:57:36.780Z,8.90
2018-01-31T17:00:05.000Z,8.90
2018-01-31T17:02:32.459Z,8.90
2018-01-31T17:04:59.911Z,8.80
2018-01-31T17:07:27.375Z,8.90
2018-01-31T17:09:54.815Z,8.80
2018-01-31T17:12:22.256Z,8.90
2018-01-31T17:14:50.459Z,8.80
2018-01-31T17:17:17.967Z,8.80
2018-01-31T17:19:45.405Z,8.80
2018-01-31T17:22:12.843Z,8.90
2018-01-31T17:24:40.287Z,8.90
2018-01-31T17:27:07.761Z,9.00
2018-01-31T17:29:35.193Z,9.10
2018-01-31T17:32:02.636Z,9.10
2018-01-31T17:34:30.845Z,9.10
2018-01-31T17:36:58.292Z,9.10
2018-01-31T17:39:25.723Z,9.10
2018-01-31T17:41:53.927Z,9.20
2018-01-31T17:44:21.368Z,9.20
2018-01-31T17:46:48.807Z,9.30
2018-01-31T17:49:17.008Z,9.30
2018-01-31T17:51:44.483Z,9.30
2018-01-31T17:54:11.927Z,9.30
2018-01-31T17:56:39.371Z,9.30
2018-01-31T17:59:07.577Z,9.20
2018-01-31T18:01:35.019Z,9.20
2018-01-31T18:04:02.472Z,9.20
2018-01-31T18:06:29.922Z,9.20
2018-01-31T18:08:58.130Z,9.10
2018-01-31T18:11:25.596Z,9.10
2018-01-31T18:13:53.032Z,9.10
2018-01-31T18:16:20.485Z,9.10
2018-01-31T18:18:47.945Z,9.10
2018-01-31T18:21:15.440Z,9.10
2018-01-31T18:23:42.889Z,9.10
2018-01-31T18:26:10.324Z,9.10
2018-01-31T18:28:37.886Z,9.10
2018-01-31T18:31:05.312Z,9.10
2018-01-31T18:33:33.539Z,9.20
2018-01-31T18:36:00.980Z,9.10
2018-01-31T18:38:28.483Z,9.20
2018-01-31T18:40:55.903Z,9.20
2018-01-31T18:43:23.404Z,9.20
2018-01-31T18:45:50.828Z,9.20
2018-01-31T18:48:18.272Z,9.20
2018-01-31T18:50:45.715Z,9.20
2018-01-31T18:53:13.165Z,9.10
2018-01-31T18:55:40.599Z,9.10
2018-01-31T18:58:08.828Z,9.10
2018-01-31T19:00:36.322Z,9.10
2018-01-31T19:03:04.523Z,9.10
2018-01-31T19:05:32.777Z,9.10
2018-01-31T19:08:00.228Z,9.10
2018-01-31T19:10:27.664Z,9.00
2018-01-31T19:12:55.108Z,9.00
2018-01-31T19:15:22.544Z,9.00
2018-01-31T19:17:50.035Z,9.00
2018-01-31T19:20:17.464Z,8.90
2018-01-31T19:22:44.933Z,8.90
2018-01-31T19:25:12.382Z,8.90
2018-01-31T19:27:39.816Z,8.90
2018-01-31T19:30:08.024Z,8.80
2018-01-31T19:32:35.464Z,8.80
2018-01-31T19:35:02.907Z,8.80
2018-01-31T19:37:31.171Z,8.80
2018-01-31T19:39:58.656Z,8.80
2018-01-31T19:42:26.853Z,8.70
2018-01-31T19:44:54.346Z,8.70
2018-01-31T19:47:21.774Z,8.70
2018-01-31T19:49:49.283Z,8.70
2018-01-31T19:52:16.754Z,8.60
2018-01-31T19:54:44.228Z,8.60
2018-01-31T19:57:12.419Z,8.60
2018-01-31T19:59:39.873Z,8.60
2018-01-31T20:02:07.386Z,8.70
2018-01-31T20:04:34.876Z,8.70
2018-01-31T20:07:03.084Z,8.70
2018-01-31T20:09:30.529Z,8.60
2018-01-31T20:11:58.031Z,8.60
2018-01-31T20:14:25.468Z,8.60
2018-01-31T20:16:52.903Z,8.50
2018-01-31T20:19:20.347Z,8.50
2018-01-31T20:21:47.866Z,8.50
2018-01-31T20:24:16.089Z,8.40
2018-01-31T20:26:43.529Z,8.40
2018-01-31T20:29:11.745Z,8.40
2018-01-31T20:31:39.231Z,8.40
2018-01-31T20:34:06.679Z,8.50
2018-01-31T20:36:34.284Z,8.50
2018-01-31T20:39:02.488Z,8.50
2018-01-31T20:41:29.928Z,8.50
2018-01-31T20:43:57.363Z,8.60
2018-01-31T20:46:25.633Z,8.70
2018-01-31T20:48:53.098Z,8.70
2018-01-31T20:51:20.578Z,8.80
2018-01-31T20:53:48.819Z,9.00
2018-01-31T20:56:16.254Z,9.00
2018-01-31T20:58:43.696Z,9.10
2018-01-31T21:01:11.145Z,9.10
2018-01-31T21:03:38.647Z,9.20
2018-01-31T21:06:06.131Z,9.10
2018-01-31T21:08:34.337Z,9.20
2018-01-31T21:11:01.781Z,9.20
2018-01-31T21:13:29.259Z,9.30
2018-01-31T21:15:56.695Z,9.30
2018-01-31T21:18:24.127Z,9.30
2018-01-31T21:20:51.584Z,9.30
2018-01-31T21:23:19.062Z,9.30
2018-01-31T21:25:47.260Z,9.20
2018-01-31T21:28:14.696Z,9.20
2018-01-31T21:30:42.950Z,9.00
2018-01-31T21:33:10.386Z,9.00
2018-01-31T21:35:37.828Z,8.90
2018-01-31T21:38:05.310Z,8.80
2018-01-31T21:40:32.791Z,8.90
2018-01-31T21:43:00.209Z,8.90
2018-01-31T21:45:27.702Z,8.80
2018-01-31T21:47:55.176Z,8.80
2018-01-31T21:50:23.372Z,8.80
2018-01-31T21:52:50.812Z,8.80
2018-01-31T21:55:19.024Z,8.60
2018-01-31T21:57:55.313Z,8.60
2018-01-31T22:00:22.786Z,8.50
2018-01-31T22:02:50.211Z,8.50
2018-01-31T22:05:17.718Z,8.40
2018-01-31T22:07:45.919Z,8.40
2018-01-31T22:10:13.401Z,8.40
2018-01-31T22:12:40.878Z,8.30
2018-01-31T22:15:08.309Z,8.20
2018-01-31T22:17:35.813Z,8.20
2018-01-31T22:20:03.241Z,8.10
2018-01-31T22:22:30.726Z,8.10
2018-01-31T22:24:58.160Z,8.00
2018-01-31T22:27:25.601Z,7.90
2018-01-31T22:29:53.090Z,7.80
2018-01-31T22:32:20.524Z,7.70
2018-01-31T22:34:47.967Z,7.80
2018-01-31T22:37:15.399Z,7.80
2018-01-31T22:39:43.608Z,7.80
2018-01-31T22:42:11.051Z,7.70
2018-01-31T22:44:38.483Z,7.70
2018-01-31T22:47:06.742Z,7.70
2018-01-31T22:49:34.171Z,7.70
2018-01-31T22:52:01.641Z,7.70
2018-01-31T22:54:29.089Z,7.60
2018-01-31T22:56:56.533Z,7.60
2018-01-31T22:59:23.968Z,7.60
2018-01-31T23:01:51.412Z,7.60
2018-01-31T23:04:19.620Z,7.60
2018-01-31T23:06:47.088Z,7.50
2018-01-31T23:09:14.536Z,7.70
2018-01-31T23:11:43.751Z,7.70
2018-01-31T23:14:16.976Z,7.70
2018-01-31T23:16:44.409Z,7.70
2018-01-31T23:19:11.859Z,7.70
2018-01-31T23:21:39.297Z,7.70
2018-01-31T23:24:06.798Z,7.70
2018-01-31T23:26:34.232Z,7.70
2018-01-31T23:29:01.672Z,7.70
2018-01-31T23:31:29.104Z,7.70
2018-01-31T23:33:57.311Z,7.60
2018-01-31T23:36:24.750Z,7.60
2018-01-31T23:38:52.191Z,7.60
2018-01-31T23:41:20.403Z,7.60
2018-01-31T23:43:47.856Z,7.50
2018-01-31T23:46:15.300Z,7.60
2018-01-31T23:48:42.763Z,7.60
2018-01-31T23:51:10.209Z,7.50
2018-01-31T23:53:38.403Z,7.50
2018-01-31T23:56:05.897Z,7.50
2018-01-31T23:58:33.292Z,7.50
